createdAt,value
2019-03-04T00:03:22.470Z,64.34
2019-03-04T00:07:29.367Z,64.35
2019-03-04T00:11:36.388Z,64.49
2019-03-04T00:15:43.616Z,64.38
2019-03-04T00:19:50.509Z,64.41
2019-03-04T00:23:57.367Z,64.39
2019-03-04T00:28:04.319Z,64.32
2019-03-04T00:32:11.257Z,64.19
2019-03-04T00:36:18.109Z,64.12
2019-03-04T00:40:24.974Z,63.96
2019-03-04T00:44:31.861Z,63.87
2019-03-04T00:48:38.964Z,63.72
2019-03-04T00:52:45.820Z,63.59
2019-03-04T00:56:52.625Z,63.30
2019-03-04T01:00:59.489Z,63.02
2019-03-04T01:05:06.894Z,62.69
2019-03-04T01:09:15.622Z,62.36
2019-03-04T01:13:24.401Z,63.01
2019-03-04T01:17:31.276Z,63.46
2019-03-04T01:21:38.141Z,63.40
2019-03-04T01:25:45.001Z,62.85
2019-03-04T01:29:51.873Z,62.28
2019-03-04T01:33:58.702Z,62.17
2019-03-04T01:38:05.696Z,61.95
2019-03-04T01:42:12.714Z,61.24
2019-03-04T01:46:19.665Z,61.45
2019-03-04T01:50:26.499Z,61.05
2019-03-04T01:54:33.344Z,60.69
2019-03-04T01:58:40.151Z,59.82
2019-03-04T02:02:47.554Z,59.57
2019-03-04T02:06:54.403Z,58.67
2019-03-04T02:11:01.224Z,57.86
2019-03-04T02:15:09.663Z,57.52
2019-03-04T02:19:16.531Z,56.94
2019-03-04T02:23:23.918Z,56.60
2019-03-04T02:27:30.733Z,56.38
2019-03-04T02:31:37.547Z,56.46
2019-03-04T02:35:44.604Z,56.54
2019-03-04T02:39:51.445Z,56.84
2019-03-04T02:43:58.322Z,57.09
2019-03-04T02:48:05.140Z,57.25
2019-03-04T02:52:11.943Z,57.58
2019-03-04T02:56:18.862Z,57.99
2019-03-04T03:00:25.806Z,58.31
2019-03-04T03:04:32.697Z,58.68
2019-03-04T03:08:39.544Z,58.70
2019-03-04T03:12:47.427Z,59.02
2019-03-04T03:16:54.403Z,59.04
2019-03-04T03:21:01.262Z,59.30
2019-03-04T03:25:08.767Z,59.42
2019-03-04T03:29:15.686Z,59.52
2019-03-04T03:33:22.509Z,59.20
2019-03-04T03:37:29.361Z,59.19
2019-03-04T03:41:37.994Z,59.27
2019-03-04T03:45:44.866Z,58.94
2019-03-04T03:49:52.755Z,58.92
2019-03-04T03:53:59.548Z,58.87
2019-03-04T03:58:06.377Z,59.09
2019-03-04T04:02:13.265Z,59.45
2019-03-04T04:06:20.157Z,59.72
2019-03-04T04:10:27.087Z,59.86
2019-03-04T04:14:33.869Z,59.91
2019-03-04T04:18:40.743Z,59.31
2019-03-04T04:22:47.652Z,59.28
2019-03-04T04:26:54.496Z,59.26
2019-03-04T04:31:01.329Z,59.34
2019-03-04T04:35:08.518Z,59.20
2019-03-04T04:39:15.354Z,58.74
2019-03-04T04:43:22.166Z,59.06
2019-03-04T04:47:29.079Z,59.19
2019-03-04T04:51:35.899Z,59.23
2019-03-04T04:55:42.723Z,59.22
2019-03-04T04:59:49.572Z,59.39
2019-03-04T05:03:56.492Z,59.42
2019-03-04T05:08:03.351Z,59.55
2019-03-04T05:12:10.197Z,59.48
2019-03-04T05:16:17.001Z,59.54
2019-03-04T05:20:23.982Z,59.51
2019-03-04T05:24:30.968Z,59.54
2019-03-04T05:28:38.972Z,59.37
2019-03-04T05:32:45.800Z,58.97
2019-03-04T05:36:52.667Z,58.81
2019-03-04T05:40:59.532Z,59.02
2019-03-04T05:45:08.087Z,58.11
2019-03-04T05:49:25.612Z,57.43
2019-03-04T05:53:32.524Z,57.33
2019-03-04T05:57:39.559Z,56.76
2019-03-04T06:02:05.389Z,56.03
2019-03-04T06:06:12.264Z,55.30
2019-03-04T06:10:19.171Z,55.33
2019-03-04T06:14:26.490Z,55.06
2019-03-04T06:18:33.373Z,55.05
2019-03-04T06:22:40.243Z,54.83
2019-03-04T06:26:47.107Z,54.70
2019-03-04T06:30:53.963Z,54.67
2019-03-04T06:35:00.872Z,54.72
2019-03-04T06:39:09.631Z,55.21
2019-03-04T06:43:16.693Z,57.02
2019-03-04T06:47:23.973Z,58.85
2019-03-04T06:51:43.449Z,58.72
2019-03-04T06:56:07.510Z,60.58
2019-03-04T07:00:53.341Z,60.89
2019-03-04T07:05:53.164Z,59.63
2019-03-04T07:10:00.003Z,59.85
2019-03-04T07:14:07.466Z,59.12
2019-03-04T07:18:14.384Z,58.86
2019-03-04T07:22:21.240Z,58.67
2019-03-04T07:26:28.085Z,58.59
2019-03-04T07:30:34.892Z,58.35
2019-03-04T07:34:41.792Z,58.07
2019-03-04T07:38:58.480Z,57.18
2019-03-04T07:43:05.486Z,56.19
2019-03-04T07:47:12.489Z,55.72
2019-03-04T07:51:26.322Z,55.26
2019-03-04T07:55:33.237Z,54.25
2019-03-04T07:59:40.079Z,53.59
2019-03-04T08:03:52.161Z,53.33
2019-03-04T08:07:59.013Z,52.60
2019-03-04T08:13:02.222Z,52.42
2019-03-04T08:17:09.179Z,51.79
2019-03-04T08:21:17.193Z,50.96
2019-03-04T08:25:24.068Z,50.67
2019-03-04T08:29:33.494Z,50.56
2019-03-04T08:33:40.394Z,49.67
2019-03-04T08:37:47.360Z,49.31
2019-03-04T08:41:54.412Z,48.80
2019-03-04T08:46:01.662Z,48.37
2019-03-04T08:50:10.104Z,48.36
2019-03-04T08:54:18.040Z,49.05
2019-03-04T08:58:24.902Z,57.83
2019-03-04T09:02:31.792Z,57.02
2019-03-04T09:06:38.817Z,60.15
2019-03-04T09:10:45.730Z,59.88
2019-03-04T09:14:52.749Z,57.85
2019-03-04T09:18:59.822Z,54.70
2019-03-04T09:23:06.813Z,52.34
2019-03-04T09:27:13.794Z,51.08
2019-03-04T09:31:20.887Z,50.73
2019-03-04T09:35:27.988Z,51.46
2019-03-04T09:39:35.064Z,51.70
2019-03-04T09:43:42.319Z,51.45
2019-03-04T09:47:49.243Z,49.78
2019-03-04T09:51:56.663Z,47.57
2019-03-04T09:56:03.556Z,47.95
2019-03-04T10:00:38.713Z,48.29
2019-03-04T10:05:36.282Z,48.81
2019-03-04T10:10:29.969Z,48.44
2019-03-04T10:15:44.030Z,48.11
2019-03-04T10:20:36.680Z,48.31
2019-03-04T10:25:59.712Z,48.43
2019-03-04T10:31:07.292Z,46.89
2019-03-04T10:36:01.576Z,46.59
2019-03-04T10:41:08.230Z,46.01
2019-03-04T10:45:48.315Z,50.91
2019-03-04T10:49:55.204Z,53.13
2019-03-04T10:54:03.180Z,53.14
2019-03-04T10:58:10.331Z,51.74
2019-03-04T11:02:17.234Z,51.50
2019-03-04T11:06:24.312Z,53.52
2019-03-04T11:10:31.548Z,53.86
2019-03-04T11:14:38.678Z,54.82
2019-03-04T11:18:45.647Z,56.99
2019-03-04T11:22:52.621Z,57.86
2019-03-04T11:26:59.548Z,58.75
2019-03-04T11:31:06.498Z,58.69
2019-03-04T11:35:13.701Z,57.68
2019-03-04T11:39:47.782Z,56.18
2019-03-04T11:43:54.599Z,54.23
2019-03-04T11:48:01.469Z,53.81
2019-03-04T11:52:08.445Z,53.65
2019-03-04T11:56:15.316Z,52.63
2019-03-04T12:00:31.754Z,54.22
2019-03-04T12:04:40.024Z,54.84
2019-03-04T12:08:46.892Z,56.64
2019-03-04T12:12:53.754Z,58.00
2019-03-04T12:17:01.726Z,56.88
2019-03-04T12:21:09.564Z,56.81
2019-03-04T12:25:16.709Z,51.90
2019-03-04T12:29:23.540Z,51.65
2019-03-04T12:33:30.479Z,52.32
2019-03-04T12:37:37.305Z,51.30
2019-03-04T12:41:44.169Z,51.58
2019-03-04T12:45:53.220Z,52.39
2019-03-04T12:50:00.330Z,55.71
2019-03-04T12:54:10.635Z,57.41
2019-03-04T12:58:17.538Z,59.98
2019-03-04T13:02:25.570Z,62.06
2019-03-04T13:06:32.582Z,63.60
2019-03-04T13:10:39.546Z,62.60
2019-03-04T13:14:46.671Z,62.68
2019-03-04T13:18:53.732Z,62.28
2019-03-04T13:23:00.951Z,67.97
2019-03-04T13:27:08.090Z,71.02
2019-03-04T13:31:15.270Z,72.26
2019-03-04T13:35:24.871Z,70.62
2019-03-04T13:39:31.837Z,71.72
2019-03-04T13:43:38.828Z,70.68
2019-03-04T13:47:45.824Z,69.85
2019-03-04T13:51:52.780Z,70.84
2019-03-04T13:55:59.722Z,71.98
2019-03-04T14:00:11.116Z,72.74
2019-03-04T14:04:18.030Z,72.96
2019-03-04T14:08:24.846Z,73.77
2019-03-04T14:12:31.701Z,74.93
2019-03-04T14:16:38.536Z,76.24
2019-03-04T14:20:45.436Z,75.55
2019-03-04T14:24:52.572Z,76.39
2019-03-04T14:28:59.359Z,75.39
2019-03-04T14:33:06.309Z,73.93
2019-03-04T14:37:34.225Z,72.99
2019-03-04T14:41:41.215Z,71.40
2019-03-04T14:45:47.996Z,69.70
2019-03-04T14:49:55.012Z,70.56
2019-03-04T14:54:01.895Z,69.01
2019-03-04T14:58:08.699Z,69.00
2019-03-04T15:02:15.687Z,69.22
2019-03-04T15:06:22.795Z,67.33
2019-03-04T15:10:30.049Z,69.55
2019-03-04T15:14:37.011Z,73.91
2019-03-04T15:18:44.016Z,77.14
2019-03-04T15:22:51.166Z,76.48
2019-03-04T15:26:58.083Z,77.66
2019-03-04T15:31:05.126Z,75.53
2019-03-04T15:35:12.115Z,72.55
2019-03-04T15:39:22.865Z,73.68
2019-03-04T15:43:27.646Z,73.27
2019-03-04T15:47:36.607Z,73.26
2019-03-04T15:51:43.016Z,72.35
2019-03-04T15:55:49.919Z,70.61
2019-03-04T15:59:56.839Z,72.45
2019-03-04T16:04:04.096Z,71.74
2019-03-04T16:08:11.028Z,72.30
2019-03-04T16:12:20.852Z,71.50
2019-03-04T16:16:27.761Z,71.61
2019-03-04T16:20:35.701Z,72.44
2019-03-04T16:24:42.618Z,72.14
2019-03-04T16:28:49.640Z,72.16
2019-03-04T16:32:56.614Z,72.23
2019-03-04T16:37:08.217Z,72.53
2019-03-04T16:41:15.137Z,68.42
2019-03-04T16:45:22.001Z,67.40
2019-03-04T16:49:28.894Z,66.61
2019-03-04T16:53:35.741Z,67.92
2019-03-04T16:57:43.829Z,70.15
2019-03-04T17:01:50.881Z,69.52
2019-03-04T17:05:57.793Z,69.04
2019-03-04T17:10:06.248Z,68.93
2019-03-04T17:14:13.245Z,67.91
2019-03-04T17:18:21.129Z,68.14
2019-03-04T17:22:30.471Z,67.68
2019-03-04T17:26:37.081Z,67.05
2019-03-04T17:30:43.918Z,66.88
2019-03-04T17:34:50.979Z,66.41
2019-03-04T17:38:57.986Z,66.43
2019-03-04T17:43:05.026Z,66.65
2019-03-04T17:47:13.157Z,66.20
2019-03-04T17:51:20.204Z,66.24
2019-03-04T17:55:27.187Z,66.09
2019-03-04T17:59:34.105Z,65.91
2019-03-04T18:03:40.963Z,66.03
2019-03-04T18:07:48.054Z,66.68
2019-03-04T18:11:54.945Z,66.62
2019-03-04T18:16:01.797Z,67.60
2019-03-04T18:20:10.817Z,67.68
2019-03-04T18:24:18.997Z,67.54
2019-03-04T18:29:18.273Z,67.17
2019-03-04T18:34:19.614Z,67.19
2019-03-04T18:39:27.366Z,66.89
2019-03-04T18:43:59.329Z,66.93
2019-03-04T18:48:57.348Z,66.25
2019-03-04T18:53:07.039Z,66.90
2019-03-04T18:57:14.178Z,66.72
2019-03-04T19:01:21.362Z,66.82
2019-03-04T19:05:28.470Z,66.51
2019-03-04T19:09:35.794Z,66.81
2019-03-04T19:13:45.212Z,66.86
2019-03-04T19:17:52.243Z,66.62
2019-03-04T19:21:59.225Z,66.90
2019-03-04T19:26:06.710Z,66.96
2019-03-04T19:30:14.392Z,66.63
2019-03-04T19:34:21.860Z,67.18
2019-03-04T19:38:28.848Z,67.22
2019-03-04T19:42:35.972Z,67.73
2019-03-04T19:46:42.991Z,67.80
2019-03-04T19:50:50.290Z,67.98
2019-03-04T19:54:57.425Z,67.99
2019-03-04T19:59:04.635Z,67.96
2019-03-04T20:03:11.701Z,68.16
2019-03-04T20:07:18.742Z,68.38
2019-03-04T20:11:25.974Z,68.69
2019-03-04T20:15:33.072Z,68.72
2019-03-04T20:19:40.123Z,69.38
2019-03-04T20:23:47.085Z,69.70
2019-03-04T20:27:54.066Z,69.49
2019-03-04T20:32:01.173Z,69.88
2019-03-04T20:36:09.145Z,70.07
2019-03-04T20:40:18.084Z,70.60
2019-03-04T20:44:25.102Z,70.57
2019-03-04T20:48:32.113Z,70.59
2019-03-04T20:52:41.556Z,70.93
2019-03-04T20:56:47.659Z,71.12
2019-03-04T21:00:55.257Z,71.11
2019-03-04T21:05:02.092Z,70.98
2019-03-04T21:09:11.126Z,71.08
2019-03-04T21:13:35.147Z,70.81
2019-03-04T21:17:34.438Z,71.01
2019-03-04T21:21:41.521Z,71.06
2019-03-04T21:26:03.014Z,71.45
2019-03-04T21:31:00.422Z,71.66
2019-03-04T21:36:18.551Z,71.59
2019-03-04T21:40:36.449Z,71.66
2019-03-04T21:46:01.681Z,72.29
2019-03-04T21:50:12.418Z,71.96
2019-03-04T21:54:19.736Z,71.68
2019-03-04T21:58:28.253Z,71.84
2019-03-04T22:03:08.222Z,72.29
2019-03-04T22:07:16.634Z,73.47
2019-03-04T22:11:25.143Z,74.87
2019-03-04T22:15:32.109Z,75.28
2019-03-04T22:19:41.550Z,75.59
2019-03-04T22:23:48.566Z,75.91
2019-03-04T22:27:56.397Z,75.79
2019-03-04T22:32:03.406Z,75.34
2019-03-04T22:36:14.246Z,75.42
2019-03-04T22:40:22.014Z,75.19
2019-03-04T22:44:31.629Z,74.69
2019-03-04T22:48:42.151Z,74.51
2019-03-04T22:52:49.257Z,74.34
2019-03-04T22:56:57.894Z,74.54
2019-03-04T23:01:36.683Z,74.17
2019-03-04T23:05:43.582Z,74.13
2019-03-04T23:10:35.282Z,73.73
2019-03-04T23:14:53.460Z,73.50
2019-03-04T23:19:00.462Z,73.30
2019-03-04T23:23:07.327Z,73.08
2019-03-04T23:27:14.353Z,72.59
2019-03-04T23:31:21.409Z,72.50
2019-03-04T23:35:28.385Z,72.14
2019-03-04T23:39:35.271Z,71.81
2019-03-04T23:43:42.623Z,71.29
2019-03-04T23:47:49.524Z,71.34
2019-03-04T23:51:56.345Z,71.52
2019-03-04T23:56:03.202Z,71.43
